Time,TemperatureF,DewpointF,PressureIn,WindDirection,WindDirectionDegrees,WindSpeedMPH,WindSpeedGustMPH,Humidity,HourlyPrecipIn,Conditions,Clouds,dailyrainin,SoftwareType,DateUTC
2013-02-25 00:01:00,71.0,59.0,-100.00,ENE,65,9.0,15.0,65,0.00,,,0.03,,2013-02-25 10:01:00,
2013-02-25 00:11:00,71.0,59.0,-100.00,ENE,65,9.0,15.0,65,0.00,,,0.03,,2013-02-25 10:11:00,
2013-02-25 00:21:00,71.0,59.0,-100.00,ENE,65,9.0,15.0,65,0.00,,,0.03,,2013-02-25 10:21:00,
2013-02-25 00:31:00,71.0,59.0,-100.00,ENE,65,9.0,15.0,65,0.00,,,0.03,,2013-02-25 10:31:00,
2013-02-25 00:41:00,71.0,59.0,-100.00,NE,52,10.0,18.0,66,0.00,,,0.01,,2013-02-25 10:41:00,
2013-02-25 01:01:00,71.0,59.0,-100.00,NE,52,10.0,18.0,66,0.00,,,0.01,,2013-02-25 11:01:00,
2013-02-25 01:11:00,71.0,59.0,-100.00,NE,52,10.0,18.0,66,0.00,,,0.01,,2013-02-25 11:11:00,
2013-02-25 01:21:00,71.0,59.0,-100.00,NE,52,10.0,18.0,66,0.00,,,0.01,,2013-02-25 11:21:00,
2013-02-25 01:32:00,71.0,59.0,-100.00,NE,52,10.0,18.0,66,0.00,,,0.01,,2013-02-25 11:32:00,
2013-02-25 01:41:00,71.0,59.0,-100.00,NE,52,9.0,19.0,66,0.00,,,0.00,,2013-02-25 11:41:00,
2013-02-25 02:01:00,71.0,59.0,-100.00,NE,52,9.0,19.0,66,0.00,,,0.00,,2013-02-25 12:01:00,
2013-02-25 02:11:00,71.0,59.0,-100.00,NE,52,9.0,19.0,66,0.00,,,0.00,,2013-02-25 12:11:00,
2013-02-25 02:21:00,71.0,59.0,-100.00,NE,52,9.0,19.0,66,0.00,,,0.00,,2013-02-25 12:21:00,
2013-02-25 02:32:00,71.0,59.0,-100.00,NE,52,9.0,19.0,66,0.00,,,0.00,,2013-02-25 12:32:00,
2013-02-25 02:41:00,71.0,59.0,-100.00,NE,53,9.0,16.0,66,0.00,,,0.00,,2013-02-25 12:41:00,
2013-02-25 03:02:00,71.0,59.0,-100.00,NE,53,9.0,16.0,66,0.00,,,0.00,,2013-02-25 13:02:00,
2013-02-25 03:12:00,71.0,59.0,-100.00,NE,53,9.0,16.0,66,0.00,,,0.00,,2013-02-25 13:12:00,
2013-02-25 03:22:00,71.0,59.0,-100.00,NE,53,9.0,16.0,66,0.00,,,0.00,,2013-02-25 13:22:00,
2013-02-25 03:31:00,71.0,59.0,-100.00,NE,53,9.0,16.0,66,0.00,,,0.00,,2013-02-25 13:31:00,
2013-02-25 03:41:00,70.0,58.0,-100.00,NE,56,9.0,17.0,66,0.00,,,0.00,,2013-02-25 13:41:00,
2013-02-25 04:02:00,70.0,58.0,-100.00,NE,56,9.0,17.0,66,0.00,,,0.00,,2013-02-25 14:02:00,
2013-02-25 04:16:00,70.0,58.0,-100.00,NE,56,9.0,17.0,66,0.00,,,0.00,,2013-02-25 14:16:00,
2013-02-25 04:21:00,70.0,58.0,-100.00,NE,56,9.0,17.0,66,0.00,,,0.00,,2013-02-25 14:21:00,
2013-02-25 04:31:00,70.0,58.0,-100.00,NE,56,9.0,17.0,66,0.00,,,0.00,,2013-02-25 14:31:00,
2013-02-25 04:41:00,69.0,58.0,-100.00,ENE,68,8.0,15.0,69,0.00,,,0.00,,2013-02-25 14:41:00,
2013-02-25 05:02:00,69.0,58.0,-100.00,ENE,68,8.0,15.0,69,0.00,,,0.00,,2013-02-25 15:02:00,
2013-02-25 05:11:00,69.0,58.0,-100.00,ENE,68,8.0,15.0,69,0.00,,,0.00,,2013-02-25 15:11:00,
2013-02-25 05:21:00,69.0,58.0,-100.00,ENE,68,8.0,15.0,69,0.00,,,0.00,,2013-02-25 15:21:00,
2013-02-25 05:32:00,69.0,58.0,-100.00,ENE,68,8.0,15.0,69,0.00,,,0.00,,2013-02-25 15:32:00,
2013-02-25 05:41:00,70.0,60.0,-100.00,NE,55,6.0,14.0,70,0.00,,,0.00,,2013-02-25 15:41:00,
2013-02-25 06:01:00,70.0,60.0,-100.00,NE,55,6.0,14.0,70,0.00,,,0.00,,2013-02-25 16:01:00,
2013-02-25 06:11:00,70.0,60.0,-100.00,NE,55,6.0,14.0,70,0.00,,,0.00,,2013-02-25 16:11:00,
2013-02-25 06:21:00,70.0,60.0,-100.00,NE,55,6.0,14.0,70,0.00,,,0.00,,2013-02-25 16:21:00,
2013-02-25 06:31:00,70.0,60.0,-100.00,NE,55,6.0,14.0,70,0.00,,,0.00,,2013-02-25 16:31:00,
2013-02-25 06:41:00,70.0,57.0,-100.00,ENE,59,8.0,14.0,63,0.00,,,0.00,,2013-02-25 16:41:00,
2013-02-25 07:01:00,70.0,57.0,-100.00,ENE,59,8.0,14.0,63,0.00,,,0.00,,2013-02-25 17:01:00,
2013-02-25 07:11:00,70.0,57.0,-100.00,ENE,59,8.0,14.0,63,0.00,,,0.00,,2013-02-25 17:11:00,
2013-02-25 07:21:00,70.0,57.0,-100.00,ENE,59,8.0,14.0,63,0.00,,,0.00,,2013-02-25 17:21:00,
2013-02-25 07:31:00,70.0,57.0,-100.00,ENE,59,8.0,14.0,63,0.00,,,0.00,,2013-02-25 17:31:00,
2013-02-25 07:41:00,70.0,58.0,-100.00,NE,39,4.0,17.0,65,0.00,,,0.00,,2013-02-25 17:41:00,
2013-02-25 08:01:00,70.0,58.0,-100.00,NE,39,4.0,17.0,65,0.00,,,0.00,,2013-02-25 18:01:00,
2013-02-25 08:12:00,70.0,58.0,-100.00,NE,39,4.0,17.0,65,0.00,,,0.00,,2013-02-25 18:12:00,
2013-02-25 08:21:00,70.0,58.0,-100.00,NE,39,4.0,17.0,65,0.00,,,0.00,,2013-02-25 18:21:00,
2013-02-25 08:32:00,70.0,58.0,-100.00,NE,39,4.0,17.0,65,0.00,,,0.00,,2013-02-25 18:32:00,
2013-02-25 08:41:00,72.0,59.0,-100.00,NE,55,8.0,14.0,64,0.00,,,0.00,,2013-02-25 18:41:00,
2013-02-25 09:01:00,72.0,59.0,-100.00,NE,55,8.0,14.0,64,0.00,,,0.00,,2013-02-25 19:01:00,
2013-02-25 09:11:00,72.0,59.0,-100.00,NE,55,8.0,14.0,64,0.00,,,0.00,,2013-02-25 19:11:00,
2013-02-25 09:21:00,72.0,59.0,-100.00,NE,55,8.0,14.0,64,0.00,,,0.00,,2013-02-25 19:21:00,
2013-02-25 09:31:00,72.0,59.0,-100.00,NE,55,8.0,14.0,64,0.00,,,0.00,,2013-02-25 19:31:00,
2013-02-25 09:41:00,73.0,58.0,-100.00,NE,53,8.0,19.0,60,0.00,,,0.00,,2013-02-25 19:41:00,
2013-02-25 10:01:00,73.0,58.0,-100.00,NE,53,8.0,19.0,60,0.00,,,0.00,,2013-02-25 20:01:00,
2013-02-25 10:11:00,73.0,58.0,-100.00,NE,53,8.0,19.0,60,0.00,,,0.00,,2013-02-25 20:11:00,
2013-02-25 10:21:00,73.0,58.0,-100.00,NE,53,8.0,19.0,60,0.00,,,0.00,,2013-02-25 20:21:00,
2013-02-25 10:31:00,73.0,58.0,-100.00,NE,53,8.0,19.0,60,0.00,,,0.00,,2013-02-25 20:31:00,
2013-02-25 10:41:00,77.0,60.0,-100.00,ENE,65,11.0,18.0,55,0.00,,,0.00,,2013-02-25 20:41:00,
2013-02-25 11:01:00,77.0,60.0,-100.00,ENE,65,11.0,18.0,55,0.00,,,0.00,,2013-02-25 21:01:00,
2013-02-25 11:11:00,77.0,60.0,-100.00,ENE,65,11.0,18.0,55,0.00,,,0.00,,2013-02-25 21:11:00,
2013-02-25 11:21:00,77.0,60.0,-100.00,ENE,65,11.0,18.0,55,0.00,,,0.00,,2013-02-25 21:21:00,
2013-02-25 11:31:00,77.0,60.0,-100.00,ENE,65,11.0,18.0,55,0.00,,,0.00,,2013-02-25 21:31:00,
2013-02-25 11:41:00,78.0,61.0,-100.00,ENE,63,13.0,21.0,55,0.00,,,0.00,,2013-02-25 21:41:00,
2013-02-25 12:01:00,78.0,61.0,-100.00,ENE,63,13.0,21.0,55,0.00,,,0.00,,2013-02-25 22:01:00,
2013-02-25 12:11:00,78.0,61.0,-100.00,ENE,63,13.0,21.0,55,0.00,,,0.00,,2013-02-25 22:11:00,
2013-02-25 12:21:00,78.0,61.0,-100.00,ENE,63,13.0,21.0,55,0.00,,,0.00,,2013-02-25 22:21:00,
2013-02-25 12:31:00,78.0,61.0,-100.00,ENE,63,13.0,21.0,55,0.00,,,0.00,,2013-02-25 22:31:00,
2013-02-25 12:41:00,79.0,60.0,-100.00,ENE,58,14.0,23.0,53,0.00,,,0.00,,2013-02-25 22:41:00,
2013-02-25 13:01:00,79.0,60.0,-100.00,ENE,58,14.0,23.0,53,0.00,,,0.00,,2013-02-25 23:01:00,
2013-02-25 13:11:00,79.0,60.0,-100.00,ENE,58,14.0,23.0,53,0.00,,,0.00,,2013-02-25 23:11:00,
2013-02-25 13:22:00,79.0,60.0,-100.00,ENE,58,14.0,23.0,53,0.00,,,0.00,,2013-02-25 23:22:00,
2013-02-25 13:31:00,79.0,60.0,-100.00,ENE,58,14.0,23.0,53,0.00,,,0.00,,2013-02-25 23:31:00,
2013-02-25 13:41:00,79.0,60.0,-100.00,NE,56,15.0,24.0,52,0.00,,,0.00,,2013-02-25 23:41:00,
2013-02-25 14:01:00,79.0,60.0,-100.00,NE,56,15.0,24.0,52,0.00,,,0.00,,2013-02-26 00:01:00,
2013-02-25 14:11:00,79.0,60.0,-100.00,NE,56,15.0,24.0,52,0.00,,,0.00,,2013-02-26 00:11:00,
2013-02-25 14:21:00,79.0,60.0,-100.00,NE,56,15.0,24.0,52,0.00,,,0.00,,2013-02-26 00:21:00,
2013-02-25 14:32:00,79.0,60.0,-100.00,NE,56,15.0,24.0,52,0.00,,,0.00,,2013-02-26 00:32:00,
2013-02-25 14:41:00,80.0,61.0,-100.00,ENE,60,13.0,23.0,52,0.00,,,0.00,,2013-02-26 00:41:00,
2013-02-25 15:02:00,80.0,61.0,-100.00,ENE,60,13.0,23.0,52,0.00,,,0.00,,2013-02-26 01:02:00,
2013-02-25 15:11:00,80.0,61.0,-100.00,ENE,60,13.0,23.0,52,0.00,,,0.00,,2013-02-26 01:11:00,
2013-02-25 15:21:00,80.0,61.0,-100.00,ENE,60,13.0,23.0,52,0.00,,,0.00,,2013-02-26 01:21:00,
2013-02-25 15:31:00,80.0,61.0,-100.00,ENE,60,13.0,23.0,52,0.00,,,0.00,,2013-02-26 01:31:00,
2013-02-25 15:41:00,77.0,61.0,-100.00,NE,50,15.0,26.0,58,0.00,,,0.00,,2013-02-26 01:41:00,
2013-02-25 16:01:00,77.0,61.0,-100.00,NE,50,15.0,26.0,58,0.00,,,0.00,,2013-02-26 02:01:00,
2013-02-25 16:11:00,77.0,61.0,-100.00,NE,50,15.0,26.0,58,0.00,,,0.00,,2013-02-26 02:11:00,
2013-02-25 16:21:00,77.0,61.0,-100.00,NE,50,15.0,26.0,58,0.00,,,0.00,,2013-02-26 02:21:00,
2013-02-25 16:31:00,77.0,61.0,-100.00,NE,50,15.0,26.0,58,0.00,,,0.00,,2013-02-26 02:31:00,
2013-02-25 16:41:00,77.0,63.0,-100.00,NE,38,11.0,26.0,61,0.00,,,0.00,,2013-02-26 02:41:00,
2013-02-25 17:01:00,77.0,63.0,-100.00,NE,38,11.0,26.0,61,0.00,,,0.00,,2013-02-26 03:01:00,
2013-02-25 17:11:00,77.0,63.0,-100.00,NE,38,11.0,26.0,61,0.00,,,0.00,,2013-02-26 03:11:00,
2013-02-25 17:21:00,77.0,63.0,-100.00,NE,38,11.0,26.0,61,0.00,,,0.00,,2013-02-26 03:21:00,
2013-02-25 17:31:00,77.0,63.0,-100.00,NE,38,11.0,26.0,61,0.00,,,0.00,,2013-02-26 03:31:00,
2013-02-25 17:41:00,76.0,62.0,-100.00,NE,52,7.0,21.0,61,0.00,,,0.00,,2013-02-26 03:41:00,
2013-02-25 18:01:00,76.0,62.0,-100.00,NE,52,7.0,21.0,61,0.00,,,0.00,,2013-02-26 04:01:00,
2013-02-25 18:11:00,76.0,62.0,-100.00,NE,52,7.0,21.0,61,0.00,,,0.00,,2013-02-26 04:11:00,
2013-02-25 18:21:00,76.0,62.0,-100.00,NE,52,7.0,21.0,61,0.00,,,0.00,,2013-02-26 04:21:00,
2013-02-25 18:31:00,76.0,62.0,-100.00,NE,52,7.0,21.0,61,0.00,,,0.00,,2013-02-26 04:31:00,
2013-02-25 18:41:00,72.0,60.0,-100.00,NE,46,4.0,19.0,67,0.00,,,0.00,,2013-02-26 04:41:00,
2013-02-25 19:01:00,72.0,60.0,-100.00,NE,46,4.0,19.0,67,0.00,,,0.00,,2013-02-26 05:01:00,
2013-02-25 19:11:00,72.0,60.0,-100.00,NE,46,4.0,19.0,67,0.00,,,0.00,,2013-02-26 05:11:00,
2013-02-25 19:21:00,72.0,60.0,-100.00,NE,46,4.0,19.0,67,0.00,,,0.00,,2013-02-26 05:21:00,
2013-02-25 19:31:00,72.0,60.0,-100.00,NE,46,4.0,19.0,67,0.00,,,0.00,,2013-02-26 05:31:00,
2013-02-25 19:41:00,71.0,60.0,-100.00,NE,52,7.0,18.0,69,0.00,,,0.00,,2013-02-26 05:41:00,
2013-02-25 20:01:00,71.0,60.0,-100.00,NE,52,7.0,18.0,69,0.00,,,0.00,,2013-02-26 06:01:00,
2013-02-25 20:11:00,71.0,60.0,-100.00,NE,52,7.0,18.0,69,0.00,,,0.00,,2013-02-26 06:11:00,
2013-02-25 20:21:00,71.0,60.0,-100.00,NE,52,7.0,18.0,69,0.00,,,0.00,,2013-02-26 06:21:00,
2013-02-25 20:31:00,71.0,60.0,-100.00,NE,52,7.0,18.0,69,0.00,,,0.00,,2013-02-26 06:31:00,
2013-02-25 20:41:00,71.0,63.0,-100.00,NE,42,7.0,19.0,76,0.00,,,0.00,,2013-02-26 06:41:00,
2013-02-25 21:01:00,71.0,63.0,-100.00,NE,42,7.0,19.0,76,0.00,,,0.00,,2013-02-26 07:01:00,
2013-02-25 21:11:00,71.0,63.0,-100.00,NE,42,7.0,19.0,76,0.00,,,0.00,,2013-02-26 07:11:00,
2013-02-25 21:22:00,71.0,63.0,-100.00,NE,42,7.0,19.0,76,0.00,,,0.00,,2013-02-26 07:22:00,
2013-02-25 21:31:00,71.0,63.0,-100.00,NE,42,7.0,19.0,76,0.00,,,0.00,,2013-02-26 07:31:00,
2013-02-25 21:41:00,69.0,62.0,-100.00,ENE,63,6.0,15.0,78,0.01,,,0.01,,2013-02-26 07:41:00,
2013-02-25 22:01:00,69.0,62.0,-100.00,ENE,63,6.0,15.0,78,0.01,,,0.01,,2013-02-26 08:01:00,
2013-02-25 22:11:00,69.0,62.0,-100.00,ENE,63,6.0,15.0,78,0.01,,,0.01,,2013-02-26 08:11:00,
2013-02-25 22:21:00,69.0,62.0,-100.00,ENE,63,6.0,15.0,78,0.01,,,0.01,,2013-02-26 08:21:00,
2013-02-25 22:31:00,69.0,62.0,-100.00,ENE,63,6.0,15.0,78,0.01,,,0.01,,2013-02-26 08:31:00,
2013-02-25 22:41:00,70.0,63.0,-100.00,ENE,68,10.0,16.0,78,0.00,,,0.01,,2013-02-26 08:41:00,
2013-02-25 23:01:00,70.0,63.0,-100.00,ENE,68,10.0,16.0,78,0.00,,,0.01,,2013-02-26 09:01:00,
2013-02-25 23:11:00,70.0,63.0,-100.00,ENE,68,10.0,16.0,78,0.00,,,0.01,,2013-02-26 09:11:00,
2013-02-25 23:21:00,70.0,63.0,-100.00,ENE,68,10.0,16.0,78,0.00,,,0.01,,2013-02-26 09:21:00,
2013-02-25 23:31:00,70.0,63.0,-100.00,ENE,68,10.0,16.0,78,0.00,,,0.01,,2013-02-26 09:31:00,
2013-02-25 23:41:00,70.0,62.0,-100.00,SSE,151,3.0,17.0,76,0.00,,,0.01,,2013-02-26 09:41:00,